Time;durP1;ratioP1;P1;durP2;ratioP2;P2;SDS_P1;SDS_P2;PMS_P1;PMS_P2;Temp;Humidity;BMP_temperature;BMP_pressure;BME280_temperature;BME280_humidity;BME280_pressure;Samples;Min_cycle;Max_cycle;Signal;HPM_P1;HPM_P2
2021/09/09 00:01:35;;;;;;;13.57;10.30;;;15.30;99.90;;;;;;5061578;28;20025;-77
2021/09/09 00:04:00;;;;;;;11.10;9.63;;;15.30;99.90;;;;;;5055039;28;20025;-76
2021/09/09 00:06:26;;;;;;;12.07;9.93;;;15.20;99.90;;;;;;5059119;28;20025;-76
2021/09/09 00:08:52;;;;;;;12.55;9.43;;;15.20;99.90;;;;;;5063164;28;20035;-75
2021/09/09 00:11:18;;;;;;;14.27;10.10;;;15.20;99.90;;;;;;5062310;28;20037;-77
2021/09/09 00:13:44;;;;;;;10.63;8.63;;;15.20;99.90;;;;;;5060904;28;20020;-77
2021/09/09 00:16:10;;;;;;;10.60;9.18;;;15.10;99.90;;;;;;5067324;28;20020;-76
2021/09/09 00:18:35;;;;;;;13.52;9.55;;;15.10;99.90;;;;;;5060800;28;20111;-76
2021/09/09 00:21:01;;;;;;;10.88;9.70;;;15.10;99.90;;;;;;5059860;28;20052;-76
2021/09/09 00:23:27;;;;;;;11.60;9.80;;;15.00;99.90;;;;;;5070242;28;20395;-77
2021/09/09 00:25:52;;;;;;;16.90;10.00;;;15.10;99.90;;;;;;5066358;28;20021;-76
2021/09/09 00:28:18;;;;;;;12.52;9.75;;;15.10;99.90;;;;;;5058005;28;20503;-76
2021/09/09 00:30:43;;;;;;;12.07;10.20;;;15.10;99.90;;;;;;5058562;28;20025;-76
2021/09/09 00:33:10;;;;;;;11.50;9.30;;;14.90;99.90;;;;;;5068106;28;20109;-77
2021/09/09 00:35:39;;;;;;;10.82;9.45;;;15.00;99.90;;;;;;5058258;28;20016;-77
2021/09/09 00:38:05;;;;;;;13.20;10.02;;;15.00;99.90;;;;;;5056434;28;20380;-77
2021/09/09 00:40:31;;;;;;;12.60;9.75;;;14.90;99.90;;;;;;5063679;28;20441;-77
2021/09/09 00:42:57;;;;;;;11.50;9.77;;;14.80;99.90;;;;;;5070120;28;20398;-77
2021/09/09 00:45:23;;;;;;;14.02;10.07;;;14.90;99.90;;;;;;5062736;28;20033;-77
2021/09/09 00:47:48;;;;;;;11.75;8.70;;;14.90;99.90;;;;;;5066777;28;20107;-77
2021/09/09 00:50:14;;;;;;;12.88;10.95;;;15.00;99.90;;;;;;5068443;28;20036;-77
2021/09/09 00:52:45;;;;;;;13.25;10.25;;;14.90;99.90;;;;;;5054141;28;20025;-77
2021/09/09 00:55:11;;;;;;;11.27;9.77;;;14.80;99.90;;;;;;5066078;28;20483;-76
2021/09/09 00:57:36;;;;;;;11.05;9.68;;;14.70;99.90;;;;;;5065685;28;20109;-77
2021/09/09 01:00:03;;;;;;;12.55;10.75;;;14.70;99.90;;;;;;5059386;28;20024;-75
2021/09/09 01:02:28;;;;;;;12.73;10.57;;;14.60;99.90;;;;;;5060853;28;20087;-76
2021/09/09 01:04:54;;;;;;;13.10;9.93;;;14.70;99.90;;;;;;5067180;28;20493;-75
2021/09/09 01:07:20;;;;;;;11.73;10.15;;;14.60;99.90;;;;;;5066718;28;20070;-76
2021/09/09 01:09:45;;;;;;;12.15;9.98;;;14.70;99.90;;;;;;5058986;28;20526;-76
2021/09/09 01:12:11;;;;;;;11.80;10.55;;;14.50;99.90;;;;;;5060044;28;20079;-77
2021/09/09 01:14:36;;;;;;;12.90;9.75;;;14.50;99.90;;;;;;5065729;28;20032;-75
2021/09/09 01:17:03;;;;;;;11.40;9.80;;;14.60;99.90;;;;;;5066501;28;20024;-75
2021/09/09 01:19:30;;;;;;;15.00;10.98;;;14.50;99.90;;;;;;5058357;28;20119;-75
2021/09/09 01:21:55;;;;;;;11.68;10.20;;;14.60;99.90;;;;;;5059605;28;20391;-76
2021/09/09 01:24:22;;;;;;;12.80;11.05;;;14.50;99.90;;;;;;5073132;28;20025;-76
2021/09/09 01:26:51;;;;;;;11.85;10.40;;;14.30;99.90;;;;;;5060044;28;20029;-74
2021/09/09 01:29:17;;;;;;;13.00;10.48;;;14.10;99.90;;;;;;5066005;28;20052;-76
2021/09/09 01:31:42;;;;;;;16.85;10.93;;;14.50;99.90;;;;;;5066504;28;20108;-76
2021/09/09 01:34:08;;;;;;;12.05;10.75;;;14.40;99.90;;;;;;5067275;28;20092;-73
2021/09/09 01:36:34;;;;;;;14.15;11.57;;;14.30;99.90;;;;;;5065670;28;20021;-73
2021/09/09 01:38:59;;;;;;;13.57;11.50;;;14.10;99.90;;;;;;5058647;28;20028;-73
2021/09/09 01:41:25;;;;;;;11.68;10.35;;;14.10;99.90;;;;;;5059275;28;20428;-74
2021/09/09 01:43:50;;;;;;;11.45;10.20;;;14.30;99.90;;;;;;5061825;28;20095;-74
2021/09/09 01:46:16;;;;;;;12.82;10.07;;;14.20;99.90;;;;;;5058309;28;20020;-74
2021/09/09 01:48:41;;;;;;;11.73;10.50;;;14.30;99.90;;;;;;5058864;28;20031;-74
2021/09/09 01:51:07;;;;;;;17.33;11.40;;;14.20;99.90;;;;;;5068515;28;20048;-74
2021/09/09 01:53:33;;;;;;;13.38;11.20;;;14.20;99.90;;;;;;5059283;28;20051;-74
2021/09/09 01:55:58;;;;;;;13.77;12.00;;;14.20;99.90;;;;;;5059005;28;20569;-73
2021/09/09 01:58:24;;;;;;;12.85;11.05;;;14.00;99.90;;;;;;5064926;28;20115;-74
2021/09/09 02:00:49;;;;;;;13.65;11.15;;;13.90;99.90;;;;;;5064959;28;20032;-76
2021/09/09 02:03:15;;;;;;;13.88;11.50;;;13.90;99.90;;;;;;5065946;28;20499;-75
2021/09/09 02:05:40;;;;;;;12.10;10.50;;;13.90;99.90;;;;;;5063626;28;20078;-75
2021/09/09 02:08:06;;;;;;;14.57;11.35;;;13.80;99.90;;;;;;5059225;28;20052;-76
2021/09/09 02:10:31;;;;;;;15.00;11.00;;;14.10;99.90;;;;;;5060041;28;20523;-76
2021/09/09 02:12:58;;;;;;;13.70;11.40;;;14.00;99.90;;;;;;5064856;28;20027;-75
2021/09/09 02:15:24;;;;;;;14.85;11.68;;;13.90;99.90;;;;;;5064667;28;20099;-75
2021/09/09 02:17:50;;;;;;;15.43;12.13;;;13.80;99.90;;;;;;5057884;28;20120;-77
2021/09/09 02:20:15;;;;;;;16.63;12.07;;;14.00;99.90;;;;;;5059117;28;20056;-77
2021/09/09 02:22:41;;;;;;;13.75;11.20;;;14.00;99.90;;;;;;5065654;28;20031;-76
2021/09/09 02:25:07;;;;;;;15.75;11.23;;;13.80;99.90;;;;;;5064477;28;20024;-77
2021/09/09 02:27:32;;;;;;;13.50;11.43;;;13.90;99.90;;;;;;5058919;28;20498;-75
2021/09/09 02:29:58;;;;;;;15.77;11.65;;;13.80;99.90;;;;;;5059626;28;20537;-75
2021/09/09 02:32:23;;;;;;;12.85;11.55;;;13.80;99.90;;;;;;5065869;28;20036;-75
2021/09/09 02:34:49;;;;;;;14.25;12.00;;;13.70;99.90;;;;;;5062681;28;20024;-76
2021/09/09 02:37:14;;;;;;;13.05;11.65;;;13.70;99.90;;;;;;5058839;28;20470;-77
2021/09/09 02:39:42;;;;;;;16.15;12.57;;;13.70;99.90;;;;;;5060763;28;20031;-75
2021/09/09 02:42:08;;;;;;;12.98;11.55;;;13.60;99.90;;;;;;5059288;28;20024;-75
2021/09/09 02:44:34;;;;;;;11.52;8.77;;;13.70;99.90;;;;;;5060127;28;20039;-74
2021/09/09 02:46:59;;;;;;;1999.90;999.90;;;13.80;99.90;;;;;;5065518;28;20029;-75
2021/09/09 02:49:25;;;;;;;37.47;21.10;;;13.70;99.90;;;;;;5062826;28;20060;-75
2021/09/09 02:51:50;;;;;;;1999.90;999.90;;;13.50;99.90;;;;;;5058763;28;20478;-77
2021/09/09 02:54:16;;;;;;;14.23;9.57;;;13.50;99.90;;;;;;5072203;28;20024;-75
2021/09/09 02:56:42;;;;;;;12.93;7.95;;;13.40;99.90;;;;;;5057510;28;20111;-75
2021/09/09 02:59:07;;;;;;;13.90;11.55;;;13.40;99.90;;;;;;5060706;28;20053;-75
2021/09/09 03:01:33;;;;;;;14.07;12.15;;;13.40;99.90;;;;;;5064229;28;20045;-75
2021/09/09 03:03:58;;;;;;;15.75;12.48;;;13.40;99.90;;;;;;5062819;28;20025;-76
2021/09/09 03:06:24;;;;;;;16.30;12.50;;;13.40;99.90;;;;;;5057083;28;20021;-75
2021/09/09 03:08:49;;;;;;;15.55;12.25;;;13.40;99.90;;;;;;5059900;28;20025;-75
2021/09/09 03:11:15;;;;;;;15.35;11.98;;;13.40;99.90;;;;;;5065687;28;20029;-75
2021/09/09 03:13:40;;;;;;;16.05;12.07;;;13.40;99.90;;;;;;5051778;28;20029;-75
2021/09/09 03:16:06;;;;;;;16.25;13.20;;;13.40;99.90;;;;;;5065191;28;20032;-76
2021/09/09 03:18:31;;;;;;;15.73;11.98;;;13.30;99.90;;;;;;5062871;28;20063;-77
2021/09/09 03:20:58;;;;;;;13.23;11.82;;;13.40;99.90;;;;;;5058465;28;20028;-77
2021/09/09 03:23:23;;;;;;;15.35;12.65;;;13.40;99.90;;;;;;5060366;28;20560;-77
2021/09/09 03:25:49;;;;;;;15.82;12.77;;;13.40;99.90;;;;;;5055987;28;20028;-77
2021/09/09 03:28:14;;;;;;;18.55;13.35;;;13.40;99.90;;;;;;5060515;28;20033;-76
2021/09/09 03:30:40;;;;;;;18.58;12.73;;;13.30;99.90;;;;;;5065147;28;20112;-75
2021/09/09 03:33:05;;;;;;;18.10;13.18;;;13.30;99.90;;;;;;5062521;28;20104;-75
2021/09/09 03:35:31;;;;;;;16.85;12.63;;;13.30;99.90;;;;;;5057696;28;20067;-76
2021/09/09 03:37:56;;;;;;;16.48;12.85;;;13.30;99.90;;;;;;5059892;28;20021;-76
2021/09/09 03:40:22;;;;;;;17.77;12.88;;;13.30;99.90;;;;;;5063785;28;20037;-78
2021/09/09 03:42:48;;;;;;;14.38;11.27;;;13.20;99.90;;;;;;5065774;28;20024;-76
2021/09/09 03:45:13;;;;;;;17.85;13.40;;;13.10;99.90;;;;;;5061704;28;20067;-76
2021/09/09 03:47:39;;;;;;;16.92;13.05;;;13.10;99.90;;;;;;5064075;28;20221;-76
2021/09/09 03:50:05;;;;;;;15.88;14.18;;;13.00;99.90;;;;;;5058963;28;20120;-75
2021/09/09 03:52:31;;;;;;;15.60;13.18;;;13.10;99.90;;;;;;5063779;28;20056;-77
2021/09/09 03:54:56;;;;;;;17.13;13.40;;;13.10;99.90;;;;;;5068573;28;20474;-77
2021/09/09 03:57:23;;;;;;;19.15;13.23;;;13.10;99.90;;;;;;5063985;28;20016;-76
2021/09/09 03:59:49;;;;;;;15.18;12.70;;;12.90;99.90;;;;;;5060575;28;20027;-77
2021/09/09 04:02:15;;;;;;;14.80;13.18;;;13.00;99.90;;;;;;5065005;28;20053;-77
2021/09/09 04:04:41;;;;;;;17.92;12.90;;;13.10;99.90;;;;;;5068379;28;20017;-76
2021/09/09 04:07:06;;;;;;;16.30;13.00;;;13.00;99.90;;;;;;5063693;28;20017;-76
2021/09/09 04:09:32;;;;;;;16.80;12.77;;;13.00;99.90;;;;;;5062847;28;20043;-76
2021/09/09 04:11:58;;;;;;;17.60;13.13;;;13.00;99.90;;;;;;5063560;28;20098;-74
2021/09/09 04:14:24;;;;;;;18.58;13.93;;;12.90;99.90;;;;;;5067629;28;20032;-74
2021/09/09 04:16:49;;;;;;;19.83;13.50;;;13.00;99.90;;;;;;5064693;28;20060;-74
2021/09/09 04:19:15;;;;;;;15.35;12.52;;;13.00;99.90;;;;;;5061554;28;20390;-74
2021/09/09 04:21:40;;;;;;;19.98;13.40;;;13.00;99.90;;;;;;5073647;28;20021;-77
2021/09/09 04:24:06;;;;;;;19.17;14.20;;;12.90;99.90;;;;;;5069482;28;20481;-76
2021/09/09 04:26:31;;;;;;;17.23;14.25;;;12.90;99.90;;;;;;5063757;28;20047;-76
2021/09/09 04:28:57;;;;;;;19.48;15.57;;;13.00;99.90;;;;;;5060184;28;20051;-75
2021/09/09 04:31:22;;;;;;;16.77;14.48;;;12.90;99.90;;;;;;5064292;28;20039;-75
2021/09/09 04:33:48;;;;;;;17.80;15.18;;;12.90;99.90;;;;;;5068050;28;20100;-75
2021/09/09 04:36:13;;;;;;;17.60;14.02;;;12.80;99.90;;;;;;5054579;28;20029;-77
2021/09/09 04:38:39;;;;;;;21.65;14.98;;;12.80;99.90;;;;;;5067049;28;20057;-74
2021/09/09 04:41:04;;;;;;;18.38;13.95;;;12.70;99.90;;;;;;5054462;28;20426;-75
2021/09/09 04:43:30;;;;;;;19.58;15.80;;;12.80;99.90;;;;;;5057515;28;20078;-75
2021/09/09 04:45:55;;;;;;;18.13;14.68;;;12.70;99.90;;;;;;5074466;28;20017;-75
2021/09/09 04:48:21;;;;;;;19.80;15.48;;;12.60;99.90;;;;;;5056868;28;20074;-74
2021/09/09 04:50:46;;;;;;;18.67;15.18;;;12.50;99.90;;;;;;5062908;28;20036;-74
2021/09/09 04:53:12;;;;;;;18.05;14.48;;;12.60;99.90;;;;;;5059881;28;20476;-74
2021/09/09 04:55:38;;;;;;;19.20;14.07;;;12.70;99.90;;;;;;5064187;28;20036;-73
2021/09/09 04:58:03;;;;;;;17.73;13.88;;;12.80;99.90;;;;;;5067365;28;20032;-75
2021/09/09 05:00:29;;;;;;;22.35;15.55;;;12.80;99.90;;;;;;5063840;28;20497;-74
2021/09/09 05:02:54;;;;;;;22.20;14.95;;;12.80;99.90;;;;;;5060438;28;20031;-74
2021/09/09 05:05:20;;;;;;;16.48;14.43;;;12.80;99.90;;;;;;5063888;28;20028;-72
2021/09/09 05:07:45;;;;;;;17.10;13.77;;;12.80;99.90;;;;;;5067143;28;20029;-73
2021/09/09 05:10:12;;;;;;;17.38;14.10;;;13.00;99.90;;;;;;5062244;28;20028;-76
2021/09/09 05:12:38;;;;;;;17.73;13.55;;;12.90;99.90;;;;;;5058973;28;20079;-76
2021/09/09 05:15:04;;;;;;;18.23;13.95;;;12.90;99.90;;;;;;5062953;28;20028;-72
2021/09/09 05:17:30;;;;;;;17.05;14.32;;;12.80;99.90;;;;;;5067052;28;20020;-74
2021/09/09 05:19:55;;;;;;;20.10;15.18;;;12.80;99.90;;;;;;5053515;28;20129;-74
2021/09/09 05:22:21;;;;;;;19.55;15.55;;;13.10;99.90;;;;;;5066844;28;20203;-74
2021/09/09 05:24:46;;;;;;;22.85;16.95;;;13.10;99.90;;;;;;5061897;28;20074;-74
2021/09/09 05:27:12;;;;;;;20.92;16.60;;;13.10;99.90;;;;;;5058329;28;20021;-75
2021/09/09 05:29:37;;;;;;;27.05;17.52;;;13.10;99.90;;;;;;5062115;28;20032;-74
2021/09/09 05:32:03;;;;;;;22.63;18.67;;;13.20;99.90;;;;;;5058362;28;20021;-73
2021/09/09 05:34:29;;;;;;;22.60;17.48;;;13.00;99.90;;;;;;5053026;28;20509;-74
2021/09/09 05:36:54;;;;;;;23.85;17.52;;;13.10;99.90;;;;;;5051976;28;20032;-74
2021/09/09 05:39:20;;;;;;;22.05;17.42;;;13.20;99.90;;;;;;5061781;28;20137;-75
2021/09/09 05:41:45;;;;;;;20.92;16.73;;;13.40;99.90;;;;;;5057940;28;20143;-76
2021/09/09 05:44:11;;;;;;;21.65;16.33;;;13.50;99.90;;;;;;5061302;28;20046;-75
2021/09/09 05:46:36;;;;;;;20.70;16.75;;;13.60;99.90;;;;;;5059436;28;20025;-76
2021/09/09 05:49:02;;;;;;;22.90;16.50;;;13.60;99.90;;;;;;5063774;28;20491;-75
2021/09/09 05:51:27;;;;;;;19.30;15.85;;;13.80;99.90;;;;;;5066524;28;20029;-75
2021/09/09 05:53:53;;;;;;;20.98;15.60;;;13.70;99.90;;;;;;5059183;28;20024;-75
2021/09/09 05:56:19;;;;;;;20.95;16.50;;;13.80;99.90;;;;;;5059201;28;20025;-75
2021/09/09 05:58:44;;;;;;;21.13;15.85;;;13.80;99.90;;;;;;5065876;28;20438;-75
2021/09/09 06:01:10;;;;;;;21.98;15.60;;;13.90;99.90;;;;;;5053043;28;20430;-76
2021/09/09 06:03:36;;;;;;;20.50;16.02;;;13.90;99.90;;;;;;5059572;28;20028;-75
2021/09/09 06:06:04;;;;;;;19.35;14.45;;;14.10;99.90;;;;;;5057938;28;20021;-76
2021/09/09 06:08:31;;;;;;;20.30;15.55;;;14.30;99.90;;;;;;5065668;28;20278;-76
2021/09/09 06:10:57;;;;;;;22.17;15.82;;;14.30;99.90;;;;;;5066283;28;20551;-75
2021/09/09 06:13:22;;;;;;;21.48;15.50;;;14.20;99.90;;;;;;5061413;28;20107;-75
2021/09/09 06:15:48;;;;;;;18.83;16.00;;;14.30;99.90;;;;;;5058893;28;20104;-76
2021/09/09 06:18:13;;;;;;;20.85;15.18;;;14.40;99.90;;;;;;5063619;28;20056;-75
2021/09/09 06:20:39;;;;;;;19.52;15.70;;;14.50;99.90;;;;;;5065663;28;20107;-75
2021/09/09 06:23:04;;;;;;;20.92;16.10;;;14.50;99.90;;;;;;5060148;28;20024;-75
2021/09/09 06:25:30;;;;;;;17.75;14.85;;;14.30;99.90;;;;;;5058853;28;20029;-75
2021/09/09 06:27:56;;;;;;;21.27;15.88;;;14.30;99.90;;;;;;5063540;28;20021;-75
2021/09/09 06:30:21;;;;;;;19.25;15.27;;;14.60;99.90;;;;;;5065748;28;20032;-75
2021/09/09 06:32:47;;;;;;;23.05;15.95;;;14.60;99.90;;;;;;5061173;28;20044;-76
2021/09/09 06:35:12;;;;;;;19.08;15.48;;;14.70;99.90;;;;;;5057169;28;20027;-75
2021/09/09 06:37:39;;;;;;;22.73;16.05;;;14.40;99.90;;;;;;5062143;28;20025;-75
2021/09/09 06:40:06;;;;;;;22.50;15.85;;;14.30;99.90;;;;;;5065674;28;20467;-75
2021/09/09 06:42:32;;;;;;;19.90;15.40;;;14.20;99.90;;;;;;5061079;28;20108;-75
2021/09/09 06:44:57;;;;;;;18.40;15.57;;;14.40;99.90;;;;;;5057241;28;20071;-75
2021/09/09 06:47:23;;;;;;;22.50;15.38;;;14.60;99.90;;;;;;5063160;28;20017;-76
2021/09/09 06:49:48;;;;;;;19.70;15.45;;;14.80;99.90;;;;;;5054053;28;20033;-75
2021/09/09 06:52:15;;;;;;;17.95;14.82;;;14.80;99.90;;;;;;5063331;28;20445;-75
2021/09/09 06:54:42;;;;;;;17.38;14.35;;;14.90;99.90;;;;;;5064068;28;20098;-75
2021/09/09 06:57:08;;;;;;;21.55;14.77;;;15.00;99.90;;;;;;5060842;28;20032;-75
2021/09/09 06:59:33;;;;;;;21.15;14.68;;;15.10;99.90;;;;;;5056140;28;20029;-77
2021/09/09 07:01:59;;;;;;;19.77;15.10;;;15.20;99.90;;;;;;5050904;28;20157;-76
2021/09/09 07:04:25;;;;;;;17.98;13.63;;;15.40;99.90;;;;;;5053839;28;20106;-77
2021/09/09 07:06:50;;;;;;;17.33;14.32;;;15.60;99.90;;;;;;5060330;28;20055;-77
2021/09/09 07:09:16;;;;;;;19.23;14.15;;;15.80;99.90;;;;;;5066051;28;20051;-75
2021/09/09 07:11:41;;;;;;;16.40;13.38;;;15.80;99.90;;;;;;5069882;28;20020;-75
2021/09/09 07:14:07;;;;;;;20.90;14.73;;;15.90;99.90;;;;;;5054792;28;20029;-75
2021/09/09 07:16:32;;;;;;;15.63;12.93;;;16.00;99.90;;;;;;5061567;28;20090;-75
2021/09/09 07:18:58;;;;;;;18.23;13.15;;;16.20;99.90;;;;;;5063492;28;20025;-75
2021/09/09 07:21:23;;;;;;;15.20;12.82;;;16.40;99.90;;;;;;5068180;28;20082;-75
2021/09/09 07:23:49;;;;;;;16.58;12.43;;;16.50;99.90;;;;;;5069561;28;20021;-75
2021/09/09 07:26:15;;;;;;;17.88;12.50;;;16.60;99.90;;;;;;5066044;28;20035;-75
2021/09/09 07:28:40;;;;;;;17.05;12.18;;;16.60;99.90;;;;;;5064827;28;20541;-75
2021/09/09 07:31:06;;;;;;;17.08;12.13;;;16.80;99.90;;;;;;5069885;28;20047;-75
2021/09/09 07:33:31;;;;;;;19.38;13.15;;;17.00;99.90;;;;;;5070269;28;20024;-75
2021/09/09 07:35:57;;;;;;;16.05;12.35;;;17.10;99.90;;;;;;5066186;28;20387;-75
2021/09/09 07:38:22;;;;;;;19.98;13.07;;;17.20;99.90;;;;;;5063254;28;20111;-70
2021/09/09 07:40:48;;;;;;;15.52;11.80;;;17.20;99.90;;;;;;5057938;28;20039;-72
2021/09/09 07:43:13;;;;;;;17.33;12.80;;;17.30;99.90;;;;;;5057961;28;20033;-75
2021/09/09 07:45:39;;;;;;;19.23;12.68;;;17.40;99.90;;;;;;5065873;28;20024;-75
2021/09/09 07:48:05;;;;;;;16.92;12.63;;;17.40;99.90;;;;;;5067504;28;20031;-75
2021/09/09 07:50:30;;;;;;;14.82;11.65;;;17.50;99.90;;;;;;5070149;28;20032;-76
2021/09/09 07:52:57;;;;;;;15.70;12.65;;;17.60;99.90;;;;;;5071427;28;20028;-75
2021/09/09 07:55:23;;;;;;;20.17;12.90;;;17.60;99.90;;;;;;5060748;28;20562;-75
2021/09/09 07:57:49;;;;;;;17.38;13.23;;;17.70;99.90;;;;;;5059243;28;20111;-75
2021/09/09 08:00:16;;;;;;;17.38;12.00;;;17.70;99.90;;;;;;5075201;28;20028;-75
2021/09/09 08:02:41;;;;;;;15.32;10.88;;;17.90;99.90;;;;;;5066356;28;20021;-75
2021/09/09 08:05:07;;;;;;;15.30;11.05;;;18.10;99.90;;;;;;5076901;28;20031;-75
2021/09/09 08:07:40;;;;;;;13.45;10.63;;;18.30;99.90;;;;;;5062986;28;20116;-76
2021/09/09 08:10:07;;;;;;;12.55;11.13;;;18.40;99.90;;;;;;5074909;28;20028;-75
2021/09/09 08:12:32;;;;;;;13.18;10.35;;;18.60;99.90;;;;;;5075704;28;20478;-75
2021/09/09 08:14:58;;;;;;;12.70;10.07;;;18.70;99.90;;;;;;5065020;28;20028;-76
2021/09/09 08:17:23;;;;;;;14.68;11.35;;;18.70;99.90;;;;;;5074372;28;20031;-75
2021/09/09 08:19:49;;;;;;;13.68;10.68;;;18.60;99.90;;;;;;5057711;28;20029;-75
2021/09/09 08:22:14;;;;;;;14.55;10.55;;;18.80;99.90;;;;;;5059082;28;20484;-75
2021/09/09 08:24:40;;;;;;;14.48;10.57;;;19.00;99.90;;;;;;5068076;28;20028;-75
2021/09/09 08:27:05;;;;;;;14.43;11.07;;;19.20;99.90;;;;;;5068557;28;20112;-75
2021/09/09 08:29:31;;;;;;;13.23;10.10;;;19.30;99.90;;;;;;5052751;28;20025;-75
2021/09/09 08:31:57;;;;;;;12.93;10.32;;;19.50;99.90;;;;;;5062503;28;20029;-75
2021/09/09 08:34:23;;;;;;;12.98;10.40;;;19.60;99.90;;;;;;5053399;28;20033;-75
2021/09/09 08:36:48;;;;;;;13.07;9.35;;;19.80;99.90;;;;;;5054259;28;20024;-75
2021/09/09 08:39:14;;;;;;;13.68;9.50;;;20.10;99.90;;;;;;5064661;28;20119;-75
2021/09/09 08:41:42;;;;;;;13.80;9.45;;;20.30;99.90;;;;;;5053926;28;20229;-75
2021/09/09 08:44:09;;;;;;;12.77;9.95;;;20.30;99.90;;;;;;5062101;28;20013;-75
2021/09/09 08:46:34;;;;;;;13.25;10.07;;;20.40;99.90;;;;;;5071738;28;20469;-75
2021/09/09 08:49:00;;;;;;;14.95;10.13;;;20.50;99.90;;;;;;5062526;28;20050;-75
2021/09/09 08:51:26;;;;;;;11.32;9.60;;;20.80;99.90;;;;;;5060616;28;20040;-75
2021/09/09 08:53:52;;;;;;;13.50;9.85;;;20.80;99.90;;;;;;5065982;28;20527;-75
2021/09/09 08:56:18;;;;;;;11.93;9.48;;;21.00;99.90;;;;;;5066120;28;20039;-75
2021/09/09 08:58:43;;;;;;;11.85;9.48;;;21.20;99.90;;;;;;5052761;28;20096;-75
2021/09/09 09:01:10;;;;;;;13.88;8.98;;;21.20;99.90;;;;;;5053896;28;20032;-72
2021/09/09 09:03:49;;;;;;;14.27;9.25;;;21.30;99.90;;;;;;5061891;28;20491;-72
2021/09/09 09:06:24;;;;;;;13.93;8.68;;;21.50;99.90;;;;;;5060863;28;20491;-73
2021/09/09 09:08:52;;;;;;;10.13;9.00;;;21.60;99.90;;;;;;5057532;28;20106;-72
2021/09/09 09:11:22;;;;;;;13.90;9.52;;;21.20;99.90;;;;;;5065490;28;20067;-72
2021/09/09 09:13:48;;;;;;;12.80;9.13;;;21.20;99.90;;;;;;5065226;28;20021;-76
2021/09/09 09:16:14;;;;;;;13.32;9.43;;;21.20;99.90;;;;;;5063234;28;20120;-75
2021/09/09 09:18:42;;;;;;;11.35;9.07;;;21.40;99.90;;;;;;5058167;28;20364;-75
2021/09/09 09:21:08;;;;;;;11.85;8.77;;;21.60;99.90;;;;;;5052610;28;20025;-75
2021/09/09 09:23:34;;;;;;;11.57;8.77;;;21.80;99.90;;;;;;5053336;28;20028;-76
2021/09/09 09:26:01;;;;;;;11.00;8.57;;;21.90;99.90;;;;;;5072667;28;20016;-76
2021/09/09 09:28:47;;;;;;;14.57;9.38;;;21.90;99.90;;;;;;5065223;28;20479;-76
2021/09/09 09:31:16;;;;;;;12.48;9.20;;;22.10;99.90;;;;;;5068268;28;20112;-75
2021/09/09 09:33:47;;;;;;;12.00;8.60;;;22.00;99.90;;;;;;5066370;28;20518;-76
2021/09/09 09:36:13;;;;;;;14.27;8.82;;;22.30;99.90;;;;;;5051834;28;20033;-76
2021/09/09 09:38:38;;;;;;;13.75;8.60;;;22.40;99.90;;;;;;5055083;28;20035;-76
2021/09/09 09:41:04;;;;;;;20.02;8.82;;;22.40;99.90;;;;;;5063024;28;20067;-75
2021/09/09 09:43:30;;;;;;;12.85;9.65;;;22.50;99.90;;;;;;5066344;28;20104;-75
2021/09/09 09:45:58;;;;;;;11.45;8.75;;;22.60;99.90;;;;;;5062793;28;20479;-76
2021/09/09 09:48:29;;;;;;;13.30;9.15;;;22.60;99.90;;;;;;5054739;28;20617;-75
2021/09/09 09:50:55;;;;;;;12.70;8.63;;;22.80;99.90;;;;;;5052962;28;20037;-76
2021/09/09 09:53:21;;;;;;;11.88;8.35;;;22.90;99.90;;;;;;5052826;28;20029;-76
2021/09/09 09:55:48;;;;;;;13.25;8.98;;;23.00;99.90;;;;;;5063710;28;20031;-75
2021/09/09 09:58:15;;;;;;;10.45;8.98;;;23.00;99.90;;;;;;5068530;28;20029;-76
2021/09/09 10:00:41;;;;;;;12.38;8.75;;;22.90;99.90;;;;;;5064084;28;20040;-76
2021/09/09 10:03:06;;;;;;;9.77;8.63;;;23.20;99.90;;;;;;5059316;28;20028;-76
2021/09/09 10:05:36;;;;;;;12.68;9.10;;;23.30;99.90;;;;;;5061238;28;20477;-76
2021/09/09 10:08:02;;;;;;;9.65;8.65;;;23.20;99.90;;;;;;5066215;28;20021;-76
2021/09/09 10:10:27;;;;;;;13.68;9.60;;;23.10;99.90;;;;;;5064576;28;20033;-77
2021/09/09 10:12:53;;;;;;;10.40;8.35;;;23.20;99.90;;;;;;5067662;28;20560;-76
2021/09/09 10:15:21;;;;;;;11.70;9.40;;;23.40;99.90;;;;;;5052416;28;20017;-76
2021/09/09 10:17:47;;;;;;;9.40;8.40;;;23.50;99.90;;;;;;5064578;28;20032;-76
2021/09/09 10:20:42;;;;;;;10.48;8.10;;;23.60;99.90;;;;;;5062897;28;20020;-76
2021/09/09 10:23:11;;;;;;;11.45;8.70;;;23.60;99.90;;;;;;5061543;28;20043;-76
2021/09/09 10:25:48;;;;;;;12.38;9.02;;;23.80;99.90;;;;;;5058607;28;20540;-76
2021/09/09 10:28:46;;;;;;;12.95;8.77;;;23.70;99.90;;;;;;5061535;28;20054;-76
2021/09/09 10:31:19;;;;;;;12.57;8.63;;;24.00;99.90;;;;;;5057031;28;20028;-76
2021/09/09 10:33:53;;;;;;;14.43;9.18;;;24.00;99.90;;;;;;5058848;28;20024;-76
2021/09/09 10:36:43;;;;;;;11.60;8.43;;;24.00;99.90;;;;;;5060219;28;20025;-76
2021/09/09 10:39:35;;;;;;;10.45;8.27;;;23.90;99.90;;;;;;5058418;28;20033;-76
2021/09/09 10:42:32;;;;;;;10.63;7.80;;;24.20;99.90;;;;;;5058902;28;20487;-76
2021/09/09 10:44:58;;;;;;;11.07;7.90;;;24.30;99.90;;;;;;5058233;28;20025;-76
2021/09/09 10:47:23;;;;;;;10.88;8.60;;;24.30;99.90;;;;;;5064135;28;20395;-76
2021/09/09 10:50:01;;;;;;;10.68;8.73;;;24.50;99.90;;;;;;5065192;28;20036;-76
2021/09/09 10:52:26;;;;;;;14.07;8.82;;;24.40;99.90;;;;;;5060903;28;20029;-76
2021/09/09 10:55:04;;;;;;;10.60;9.00;;;24.20;99.90;;;;;;5058305;28;20040;-76
2021/09/09 10:57:30;;;;;;;13.30;9.25;;;24.30;99.90;;;;;;5061012;28;20028;-77
2021/09/09 10:59:56;;;;;;;13.77;9.38;;;24.20;99.90;;;;;;5065116;28;20082;-76
2021/09/09 11:02:21;;;;;;;13.20;9.32;;;24.20;99.90;;;;;;5061629;28;20021;-77
2021/09/09 11:04:49;;;;;;;12.73;9.73;;;24.30;99.90;;;;;;5058072;28;20024;-76
2021/09/09 11:07:25;;;;;;;12.15;8.77;;;24.70;99.90;;;;;;5071908;28;20099;-76
2021/09/09 11:10:03;;;;;;;11.15;8.73;;;24.70;99.90;;;;;;5059499;28;20035;-76
2021/09/09 11:12:40;;;;;;;14.85;9.52;;;24.80;99.90;;;;;;5070151;28;20024;-76
2021/09/09 11:15:11;;;;;;;11.88;9.65;;;24.60;99.90;;;;;;5061478;28;20029;-76
2021/09/09 11:17:37;;;;;;;11.20;9.35;;;24.60;99.90;;;;;;5054426;28;20115;-76
2021/09/09 11:20:11;;;;;;;12.90;9.10;;;24.90;99.90;;;;;;5060836;28;20046;-76
2021/09/09 11:22:38;;;;;;;11.85;9.05;;;24.70;99.90;;;;;;5058093;28;20016;-76
2021/09/09 11:25:04;;;;;;;10.13;8.40;;;24.60;99.90;;;;;;5059985;28;20083;-76
2021/09/09 11:27:33;;;;;;;11.95;9.23;;;24.80;99.90;;;;;;5070200;28;20024;-76
2021/09/09 11:30:00;;;;;;;11.55;9.13;;;25.20;99.90;;;;;;5059387;28;20484;-76
2021/09/09 11:32:27;;;;;;;9.75;8.75;;;25.50;99.90;;;;;;5064922;28;20074;-76
2021/09/09 11:35:04;;;;;;;11.25;9.20;;;25.50;99.90;;;;;;5051338;28;20109;-76
2021/09/09 11:37:30;;;;;;;15.05;9.40;;;25.30;99.90;;;;;;5071351;28;20391;-76
2021/09/09 11:40:03;;;;;;;9.95;8.95;;;25.10;99.90;;;;;;5052185;28;20032;-76
2021/09/09 11:42:28;;;;;;;10.68;9.25;;;25.50;99.90;;;;;;5062922;28;20025;-76
2021/09/09 11:44:57;;;;;;;12.35;9.43;;;25.60;99.90;;;;;;5064496;28;20070;-76
2021/09/09 11:47:22;;;;;;;11.55;8.95;;;25.70;99.90;;;;;;5060377;28;20025;-76
2021/09/09 11:49:52;;;;;;;10.20;9.20;;;25.60;99.90;;;;;;5057898;28;20044;-76
2021/09/09 11:52:17;;;;;;;65.32;14.73;;;25.90;99.90;;;;;;5060652;28;20537;-76
2021/09/09 11:54:43;;;;;;;86.10;19.08;;;25.80;99.90;;;;;;5064682;28;20041;-76
2021/09/09 11:57:12;;;;;;;41.58;14.90;;;26.20;99.90;;;;;;5059670;28;20024;-75
2021/09/09 11:59:47;;;;;;;926.78;125.55;;;26.60;99.90;;;;;;5054721;28;20041;-76
2021/09/09 12:02:22;;;;;;;10.93;9.60;;;27.10;99.90;;;;;;5062257;28;20098;-76
2021/09/09 12:04:48;;;;;;;10.80;9.55;;;27.60;99.90;;;;;;5069087;28;20029;-77
2021/09/09 12:07:19;;;;;;;10.98;9.35;;;27.30;99.90;;;;;;5067690;28;20048;-76
2021/09/09 12:09:57;;;;;;;15.38;9.30;;;27.50;99.90;;;;;;5055893;28;20453;-76
2021/09/09 12:12:24;;;;;;;10.63;9.55;;;28.20;99.90;;;;;;5068135;28;20044;-76
2021/09/09 12:15:01;;;;;;;13.73;8.80;;;27.40;99.90;;;;;;5062262;28;20032;-76
2021/09/09 12:17:28;;;;;;;10.70;8.63;;;27.70;99.90;;;;;;5061200;28;20112;-77
2021/09/09 12:19:53;;;;;;;13.38;10.80;;;27.90;99.90;;;;;;5065394;28;20029;-77
2021/09/09 12:22:19;;;;;;;11.80;10.23;;;28.60;99.90;;;;;;5061799;28;20040;-76
2021/09/09 12:24:44;;;;;;;51.90;48.10;;;28.80;99.90;;;;;;5063827;28;20038;-76
2021/09/09 12:27:16;;;;;;;305.10;87.72;;;29.00;99.90;;;;;;5060060;28;20068;-76
2021/09/09 12:29:44;;;;;;;10.73;8.85;;;29.10;99.90;;;;;;5066542;28;20013;-77